Time;durP1;ratioP1;P1;durP2;ratioP2;P2;SDS_P1;SDS_P2;PMS_P1;PMS_P2;Temp;Humidity;BMP_temperature;BMP_pressure;BME280_temperature;BME280_humidity;BME280_pressure;Samples;Min_cycle;Max_cycle;Signal;HPM_P1;HPM_P2
2022/07/12 00:00:45;;;;;;;3.10;1.53;;;13.50;99.90;;;;;;5110644;28;20262;-76
2022/07/12 00:03:11;;;;;;;4.03;2.47;;;13.50;99.90;;;;;;5095268;28;20187;-76
2022/07/12 00:05:37;;;;;;;2.67;1.73;;;13.40;99.90;;;;;;5101496;28;20183;-76
2022/07/12 00:08:03;;;;;;;6.87;1.90;;;13.40;99.90;;;;;;5096303;28;20184;-76
2022/07/12 00:10:29;;;;;;;4.40;1.90;;;13.50;99.90;;;;;;5092246;28;20259;-76
2022/07/12 00:12:54;;;;;;;4.17;2.30;;;13.50;99.90;;;;;;5094913;28;20565;-76
2022/07/12 00:15:21;;;;;;;14.03;2.57;;;13.40;99.90;;;;;;5111741;28;20176;-77
2022/07/12 00:17:46;;;;;;;4.27;2.10;;;13.40;99.90;;;;;;5111910;28;20516;-76
2022/07/12 00:20:12;;;;;;;7.37;2.27;;;13.30;99.90;;;;;;5111168;28;20429;-76
2022/07/12 00:22:38;;;;;;;4.80;2.00;;;13.30;99.90;;;;;;5111349;28;20252;-76
2022/07/12 00:25:04;;;;;;;3.50;2.17;;;13.30;99.90;;;;;;5109253;28;20187;-76
2022/07/12 00:27:29;;;;;;;2.77;2.10;;;13.30;99.90;;;;;;5099295;28;20180;-76
2022/07/12 00:29:55;;;;;;;4.33;1.90;;;13.30;99.90;;;;;;5109795;28;20760;-76
2022/07/12 00:32:21;;;;;;;3.93;1.93;;;13.30;99.90;;;;;;5111814;28;20656;-76
2022/07/12 00:34:46;;;;;;;4.00;2.47;;;13.30;99.90;;;;;;5111858;28;20823;-76
2022/07/12 00:37:12;;;;;;;3.43;1.87;;;13.20;99.90;;;;;;5108601;28;20192;-75
2022/07/12 00:39:38;;;;;;;4.67;2.57;;;13.20;99.90;;;;;;5101671;28;20203;-76
2022/07/12 00:42:04;;;;;;;6.00;1.97;;;13.20;99.90;;;;;;5111936;28;20244;-76
2022/07/12 00:44:30;;;;;;;6.53;2.90;;;13.20;99.90;;;;;;5111810;28;20182;-76
2022/07/12 00:46:57;;;;;;;4.80;2.43;;;13.10;99.90;;;;;;5112372;28;20425;-76
2022/07/12 00:49:24;;;;;;;4.70;2.30;;;13.10;99.90;;;;;;5102103;28;20421;-76
2022/07/12 00:51:50;;;;;;;3.83;2.33;;;13.00;99.90;;;;;;5111489;28;20436;-76
2022/07/12 00:54:17;;;;;;;3.87;2.00;;;12.90;99.90;;;;;;5112050;28;20811;-76
2022/07/12 00:56:43;;;;;;;3.43;1.60;;;12.90;99.90;;;;;;5105870;28;20791;-76
2022/07/12 00:59:10;;;;;;;6.90;2.23;;;12.90;99.90;;;;;;5102267;28;20444;-76
2022/07/12 01:01:38;;;;;;;3.20;1.80;;;12.90;99.90;;;;;;5105581;28;20437;-76
2022/07/12 01:04:05;;;;;;;5.27;2.07;;;12.90;99.90;;;;;;5102187;28;20425;-76
2022/07/12 01:06:31;;;;;;;3.97;2.30;;;12.90;99.90;;;;;;5108372;28;20435;-76
2022/07/12 01:08:58;;;;;;;4.93;2.53;;;12.90;99.90;;;;;;5101550;28;20766;-76
2022/07/12 01:11:25;;;;;;;4.30;2.13;;;12.90;99.90;;;;;;5110980;28;20436;-76
2022/07/12 01:13:52;;;;;;;2.47;1.73;;;12.80;99.90;;;;;;5103736;28;20449;-75
2022/07/12 01:16:19;;;;;;;8.13;2.20;;;12.80;99.90;;;;;;5098951;28;20419;-76
2022/07/12 01:18:45;;;;;;;3.90;1.90;;;12.70;99.90;;;;;;5110347;28;20417;-76
2022/07/12 01:21:21;;;;;;;3.20;1.67;;;12.80;99.90;;;;;;5110928;28;20473;-76
2022/07/12 01:23:48;;;;;;;3.83;1.93;;;12.70;99.90;;;;;;5111721;28;20183;-76
2022/07/12 01:26:14;;;;;;;3.87;2.03;;;12.70;99.90;;;;;;5111617;28;20433;-76
2022/07/12 01:28:39;;;;;;;3.03;1.43;;;12.70;99.90;;;;;;5111990;28;20421;-76
2022/07/12 01:31:05;;;;;;;5.30;2.40;;;12.70;99.90;;;;;;5101701;28;20189;-76
2022/07/12 01:33:32;;;;;;;5.13;2.60;;;12.70;99.90;;;;;;5107020;28;20214;-76
2022/07/12 01:35:57;;;;;;;4.57;2.23;;;12.70;99.90;;;;;;5111964;28;20536;-76
2022/07/12 01:38:23;;;;;;;3.17;2.00;;;12.60;99.90;;;;;;5115240;28;20516;-76
2022/07/12 01:40:49;;;;;;;7.57;2.10;;;12.70;99.90;;;;;;5115286;28;20262;-76
2022/07/12 01:43:14;;;;;;;4.23;2.23;;;12.60;99.90;;;;;;5114670;27;21041;-76
2022/07/12 01:45:41;;;;;;;3.70;1.77;;;12.60;99.90;;;;;;5115007;28;20188;-76
2022/07/12 01:48:07;;;;;;;2.87;2.07;;;12.60;99.90;;;;;;5115311;28;20225;-76
2022/07/12 01:50:33;;;;;;;3.73;2.20;;;12.50;99.90;;;;;;5114952;28;20429;-76
2022/07/12 01:53:00;;;;;;;3.77;2.20;;;12.50;99.90;;;;;;5114666;28;20676;-76
2022/07/12 01:55:26;;;;;;;3.50;2.13;;;12.50;99.90;;;;;;5115150;28;20433;-76
2022/07/12 01:57:53;;;;;;;4.73;2.60;;;12.50;99.90;;;;;;5112845;28;20782;-76
2022/07/12 02:00:22;;;;;;;5.60;2.37;;;12.40;99.90;;;;;;5107965;28;20176;-76
2022/07/12 02:02:48;;;;;;;5.13;2.70;;;12.40;99.90;;;;;;5114458;28;20788;-76
2022/07/12 02:05:14;;;;;;;4.23;1.90;;;12.40;99.90;;;;;;5113561;28;20422;-76
2022/07/12 02:07:41;;;;;;;3.80;1.97;;;12.50;99.90;;;;;;5112762;28;20192;-76
2022/07/12 02:10:07;;;;;;;4.67;2.70;;;12.50;99.90;;;;;;5114204;28;20413;-76
2022/07/12 02:12:34;;;;;;;4.37;2.23;;;12.50;99.90;;;;;;5113756;28;20433;-76
2022/07/12 02:15:00;;;;;;;4.53;2.00;;;12.50;99.90;;;;;;5113822;28;20974;-76
2022/07/12 02:17:26;;;;;;;5.63;2.60;;;12.50;99.90;;;;;;5114148;28;20430;-76
2022/07/12 02:19:52;;;;;;;4.90;2.80;;;12.40;99.90;;;;;;5114209;28;20183;-76
2022/07/12 02:22:18;;;;;;;6.50;2.70;;;12.50;99.90;;;;;;5114188;28;20214;-76
2022/07/12 02:24:43;;;;;;;6.13;2.30;;;12.40;99.90;;;;;;5114266;28;21107;-76
2022/07/12 02:27:09;;;;;;;3.50;2.00;;;12.50;99.90;;;;;;5114674;28;20187;-76
2022/07/12 02:29:37;;;;;;;5.40;2.40;;;12.50;99.90;;;;;;5114642;28;20229;-76
2022/07/12 02:32:03;;;;;;;3.20;2.23;;;12.50;99.90;;;;;;5113801;28;20175;-76
2022/07/12 02:34:30;;;;;;;6.60;3.10;;;12.50;99.90;;;;;;5114388;28;20456;-76
2022/07/12 02:36:55;;;;;;;4.03;1.97;;;12.50;99.90;;;;;;5109671;28;20561;-76
2022/07/12 02:39:21;;;;;;;4.27;2.00;;;12.40;99.90;;;;;;5114289;28;20429;-76
2022/07/12 02:41:46;;;;;;;5.63;2.17;;;12.40;99.90;;;;;;5113885;28;20220;-76
2022/07/12 02:44:13;;;;;;;3.50;2.07;;;12.40;99.90;;;;;;5114135;28;20187;-76
2022/07/12 02:46:38;;;;;;;4.20;2.00;;;12.30;99.90;;;;;;5114153;28;20696;-77
2022/07/12 02:49:04;;;;;;;4.93;2.50;;;12.30;99.90;;;;;;5113648;28;20945;-76
2022/07/12 02:51:30;;;;;;;4.57;2.70;;;12.30;99.90;;;;;;5113657;28;20637;-76
2022/07/12 02:53:55;;;;;;;4.47;2.30;;;12.40;99.90;;;;;;5112798;28;20199;-76
2022/07/12 02:56:21;;;;;;;4.73;2.30;;;12.40;99.90;;;;;;5114131;28;20171;-76
2022/07/12 02:58:47;;;;;;;3.73;2.13;;;12.40;99.90;;;;;;5110189;28;20179;-76
2022/07/12 03:01:14;;;;;;;5.03;2.20;;;12.40;99.90;;;;;;5110184;28;20180;-76
2022/07/12 03:03:39;;;;;;;3.60;2.20;;;12.40;99.90;;;;;;5113444;28;20563;-76
2022/07/12 03:06:05;;;;;;;5.57;2.33;;;12.30;99.90;;;;;;5113127;28;20434;-76
2022/07/12 03:08:30;;;;;;;6.40;3.37;;;12.30;99.90;;;;;;5113899;28;20184;-76
2022/07/12 03:10:56;;;;;;;5.10;2.50;;;12.30;99.90;;;;;;5113162;28;20187;-76
2022/07/12 03:13:22;;;;;;;5.53;2.43;;;12.30;99.90;;;;;;5112723;28;20200;-76
2022/07/12 03:15:47;;;;;;;4.40;2.83;;;12.20;99.90;;;;;;5113226;28;20259;-76
2022/07/12 03:18:13;;;;;;;7.17;3.17;;;12.30;99.90;;;;;;5112943;28;20263;-76
2022/07/12 03:20:39;;;;;;;4.33;2.67;;;12.30;99.90;;;;;;5112931;28;20180;-76
2022/07/12 03:23:04;;;;;;;4.17;2.60;;;12.40;99.90;;;;;;5108965;28;20219;-76
2022/07/12 03:25:30;;;;;;;15.90;2.50;;;12.40;99.90;;;;;;5113033;28;20229;-76
2022/07/12 03:27:56;;;;;;;5.67;2.70;;;12.50;99.90;;;;;;5113223;28;20221;-76
2022/07/12 03:30:21;;;;;;;3.70;2.17;;;12.50;99.90;;;;;;5113492;28;20195;-76
2022/07/12 03:32:47;;;;;;;6.40;2.50;;;12.60;99.90;;;;;;5112767;28;20556;-76
2022/07/12 03:35:13;;;;;;;6.10;2.60;;;12.60;99.90;;;;;;5113035;28;20614;-76
2022/07/12 03:37:46;;;;;;;4.77;2.67;;;12.60;99.90;;;;;;5113111;28;20198;-76
2022/07/12 03:40:13;;;;;;;4.57;2.40;;;12.60;99.90;;;;;;5110257;28;20412;-76
2022/07/12 03:42:39;;;;;;;4.80;2.67;;;12.60;99.90;;;;;;5112778;28;20939;-76
2022/07/12 03:45:06;;;;;;;5.20;2.57;;;12.60;99.90;;;;;;5113097;28;20456;-76
2022/07/12 03:47:32;;;;;;;9.83;3.13;;;12.60;99.90;;;;;;5112863;28;20180;-75
2022/07/12 03:49:58;;;;;;;6.50;3.00;;;12.70;99.90;;;;;;5113100;28;20420;-75
2022/07/12 03:52:24;;;;;;;7.90;2.40;;;12.70;99.90;;;;;;5112415;27;20232;-75
2022/07/12 03:54:49;;;;;;;4.77;3.07;;;12.80;99.90;;;;;;5112765;28;20290;-76
2022/07/12 03:57:15;;;;;;;6.50;3.00;;;12.80;99.90;;;;;;5112921;28;20186;-76
2022/07/12 03:59:45;;;;;;;4.17;2.47;;;12.80;99.90;;;;;;5109157;28;20192;-76
2022/07/12 04:02:12;;;;;;;5.47;2.77;;;12.80;99.90;;;;;;5109399;28;20176;-75
2022/07/12 04:04:38;;;;;;;6.73;2.60;;;12.80;99.90;;;;;;5111914;28;20445;-76
2022/07/12 04:07:04;;;;;;;6.87;2.73;;;12.80;99.90;;;;;;5112378;28;20418;-76
2022/07/12 04:09:30;;;;;;;4.60;2.70;;;12.70;99.90;;;;;;5111770;27;20857;-76
2022/07/12 04:11:56;;;;;;;4.97;2.90;;;12.70;99.90;;;;;;5108520;28;20451;-76
2022/07/12 04:14:22;;;;;;;5.30;3.00;;;12.70;99.90;;;;;;5106634;28;20504;-76
2022/07/12 04:16:47;;;;;;;4.57;2.60;;;12.70;99.90;;;;;;5112268;28;20184;-76
2022/07/12 04:19:13;;;;;;;4.53;2.47;;;12.70;99.90;;;;;;5110804;28;20532;-76
2022/07/12 04:21:39;;;;;;;10.93;3.20;;;12.70;99.90;;;;;;5101736;28;20930;-76
2022/07/12 04:24:05;;;;;;;4.00;2.23;;;12.70;99.90;;;;;;5105454;28;20200;-76
2022/07/12 04:26:31;;;;;;;5.33;3.37;;;12.70;99.90;;;;;;5108742;28;20577;-76
2022/07/12 04:28:57;;;;;;;3.20;2.20;;;12.70;99.90;;;;;;5111726;28;20493;-76
2022/07/12 04:31:26;;;;;;;4.00;2.50;;;12.70;99.90;;;;;;5111316;28;20421;-76
2022/07/12 04:33:51;;;;;;;3.50;2.10;;;12.70;99.90;;;;;;5112047;28;20238;-76
2022/07/12 04:36:17;;;;;;;4.07;2.20;;;12.70;99.90;;;;;;5112102;28;20453;-76
2022/07/12 04:38:43;;;;;;;3.67;2.80;;;12.70;99.90;;;;;;5111539;28;20210;-75
2022/07/12 04:41:08;;;;;;;4.40;2.40;;;12.80;99.90;;;;;;5111569;28;20531;-76
2022/07/12 04:43:34;;;;;;;4.10;2.20;;;12.80;99.90;;;;;;5106876;28;20241;-75
2022/07/12 04:46:10;;;;;;;4.17;3.00;;;12.80;99.90;;;;;;5105620;28;20180;-76
2022/07/12 04:48:36;;;;;;;5.47;2.77;;;12.90;99.90;;;;;;5105545;28;20252;-76
2022/07/12 04:51:02;;;;;;;7.00;2.50;;;13.00;99.90;;;;;;5111383;28;20458;-75
2022/07/12 04:53:28;;;;;;;4.70;2.67;;;13.00;99.90;;;;;;5112013;28;20469;-76
2022/07/12 04:55:57;;;;;;;4.13;2.53;;;13.00;99.90;;;;;;5111985;28;20978;-76
2022/07/12 04:58:23;;;;;;;5.60;3.00;;;13.10;99.90;;;;;;5112031;28;20350;-76
2022/07/12 05:00:53;;;;;;;8.27;3.40;;;13.10;99.90;;;;;;5104735;28;20430;-77
2022/07/12 05:03:19;;;;;;;5.10;3.33;;;13.10;99.90;;;;;;5101111;28;20436;-76
2022/07/12 05:05:44;;;;;;;6.23;3.27;;;13.10;99.90;;;;;;5108876;28;20425;-76
2022/07/12 05:08:10;;;;;;;7.37;3.87;;;13.20;99.90;;;;;;5111216;28;20176;-77
2022/07/12 05:10:35;;;;;;;6.00;3.03;;;13.20;99.90;;;;;;5112870;28;20190;-77
2022/07/12 05:13:01;;;;;;;8.10;2.90;;;13.20;99.90;;;;;;5103829;28;20183;-76
2022/07/12 05:15:27;;;;;;;7.40;3.73;;;13.30;99.90;;;;;;5114826;28;20183;-76
2022/07/12 05:17:52;;;;;;;5.90;3.53;;;13.30;99.90;;;;;;5111454;28;20172;-76
2022/07/12 05:20:19;;;;;;;6.13;2.80;;;13.30;99.90;;;;;;5113199;28;20190;-76
2022/07/12 05:22:44;;;;;;;5.00;3.47;;;13.40;99.90;;;;;;5114268;28;20180;-78
2022/07/12 05:25:10;;;;;;;10.20;3.77;;;13.50;99.90;;;;;;5115591;28;20848;-78
2022/07/12 05:27:36;;;;;;;6.22;3.70;;;13.60;99.90;;;;;;5114568;28;20479;-76
2022/07/12 05:30:03;;;;;;;4.13;2.67;;;13.70;99.90;;;;;;5112913;27;20184;-76
2022/07/12 05:32:28;;;;;;;16.10;3.27;;;13.70;99.90;;;;;;5109189;28;20194;-76
2022/07/12 05:34:54;;;;;;;4.40;2.20;;;13.90;99.90;;;;;;5113846;28;20453;-76
2022/07/12 05:37:20;;;;;;;3.97;2.70;;;13.90;99.90;;;;;;5114111;28;20300;-76
2022/07/12 05:39:46;;;;;;;4.43;3.03;;;14.00;99.90;;;;;;5114129;27;20203;-76
2022/07/12 05:42:11;;;;;;;15.33;3.43;;;14.10;99.90;;;;;;5109856;28;20878;-76
2022/07/12 05:44:37;;;;;;;4.47;2.40;;;14.20;99.90;;;;;;5114244;28;20201;-75
2022/07/12 05:47:03;;;;;;;3.70;2.13;;;14.30;99.90;;;;;;5101183;28;20195;-76
2022/07/12 05:49:28;;;;;;;7.83;2.80;;;14.40;99.90;;;;;;5113548;28;20188;-76
2022/07/12 05:54:38;;;;;;;4.17;2.43;;;14.70;99.90;;;;;;5114522;28;20248;-77
2022/07/12 05:57:04;;;;;;;4.33;2.40;;;14.90;99.90;;;;;;5113705;27;20986;-77
2022/07/12 05:59:31;;;;;;;7.13;2.50;;;15.10;99.90;;;;;;5112731;28;20790;-77
2022/07/12 06:01:56;;;;;;;5.30;2.70;;;15.20;99.90;;;;;;5108308;28;20215;-76
2022/07/12 06:04:22;;;;;;;4.37;2.43;;;15.30;99.90;;;;;;5111125;28;20457;-77
2022/07/12 06:06:48;;;;;;;5.00;2.20;;;15.30;99.90;;;;;;5113610;28;20172;-77
2022/07/12 06:09:13;;;;;;;4.77;1.90;;;15.40;99.90;;;;;;5113477;28;21611;-77
2022/07/12 06:11:39;;;;;;;3.87;2.50;;;15.50;99.90;;;;;;5106988;28;20183;-76
2022/07/12 06:14:05;;;;;;;6.43;2.13;;;15.60;99.90;;;;;;5101002;28;20201;-76
2022/07/12 06:16:30;;;;;;;2.70;1.60;;;15.70;99.90;;;;;;5102623;28;20180;-76
2022/07/12 06:18:56;;;;;;;3.57;2.00;;;15.70;99.90;;;;;;5110316;28;20187;-76
2022/07/12 06:21:21;;;;;;;2.73;1.83;;;15.80;99.90;;;;;;5103810;28;20179;-76
2022/07/12 06:23:47;;;;;;;3.33;2.10;;;15.80;99.90;;;;;;5112165;28;20180;-76
2022/07/12 06:26:12;;;;;;;4.37;2.50;;;15.90;99.90;;;;;;5111874;28;20236;-76
2022/07/12 06:28:38;;;;;;;4.37;2.10;;;16.00;99.90;;;;;;5111632;28;20504;-76
2022/07/12 06:31:04;;;;;;;4.33;2.50;;;16.20;99.90;;;;;;5108335;28;20211;-76
2022/07/12 06:33:30;;;;;;;5.07;2.57;;;16.20;99.90;;;;;;5111514;28;20195;-75
2022/07/12 06:35:56;;;;;;;4.23;2.30;;;16.30;99.90;;;;;;5111339;28;20208;-76
2022/07/12 06:38:21;;;;;;;4.50;2.30;;;16.40;99.90;;;;;;5110911;28;20466;-76
2022/07/12 06:40:47;;;;;;;3.47;1.83;;;16.40;99.90;;;;;;5112436;28;20659;-76
2022/07/12 06:43:13;;;;;;;4.70;2.30;;;16.50;99.90;;;;;;5111429;28;20632;-76
2022/07/12 06:45:39;;;;;;;3.53;1.97;;;16.60;99.90;;;;;;5105042;27;20176;-76
2022/07/12 06:48:05;;;;;;;2.80;1.87;;;16.60;99.90;;;;;;5104885;28;20442;-76
2022/07/12 06:50:32;;;;;;;3.17;1.80;;;16.80;99.90;;;;;;5111523;28;20430;-76
2022/07/12 06:52:57;;;;;;;4.70;2.30;;;16.90;99.90;;;;;;5112227;28;20680;-76
2022/07/12 06:55:23;;;;;;;5.73;2.00;;;17.10;99.90;;;;;;5110793;28;20442;-76
2022/07/12 06:57:49;;;;;;;5.20;1.63;;;17.20;99.90;;;;;;5102063;28;20172;-75
2022/07/12 07:00:15;;;;;;;4.33;1.77;;;17.30;99.90;;;;;;5108723;28;20179;-76
2022/07/12 07:02:40;;;;;;;3.80;1.63;;;17.40;99.90;;;;;;5106462;28;20290;-76
2022/07/12 07:05:07;;;;;;;2.93;1.47;;;17.60;99.90;;;;;;5101863;28;20191;-76
2022/07/12 07:07:33;;;;;;;2.70;1.40;;;17.70;99.90;;;;;;5102624;28;20192;-76
2022/07/12 07:09:59;;;;;;;4.30;1.60;;;17.90;99.90;;;;;;5105639;28;20426;-76
2022/07/12 07:12:24;;;;;;;3.93;1.37;;;18.10;99.90;;;;;;5103906;28;20835;-76
2022/07/12 07:14:50;;;;;;;1.80;0.97;;;18.30;99.90;;;;;;5107885;28;20195;-76
2022/07/12 07:17:17;;;;;;;4.07;2.03;;;18.40;99.90;;;;;;5105629;28;20184;-76
2022/07/12 07:19:44;;;;;;;2.30;1.30;;;18.50;99.90;;;;;;5109541;28;20263;-77
2022/07/12 07:22:10;;;;;;;3.40;1.77;;;18.60;99.90;;;;;;5109229;28;20409;-77
2022/07/12 07:24:35;;;;;;;3.30;1.70;;;18.70;99.90;;;;;;5107220;28;20951;-77
2022/07/12 07:27:01;;;;;;;5.93;1.93;;;19.10;99.10;;;;;;5107195;28;20501;-77
2022/07/12 07:32:11;;;;;;;2.63;1.00;;;19.90;97.80;;;;;;5103158;28;20195;-77
2022/07/12 07:34:37;;;;;;;1.90;0.93;;;20.20;97.50;;;;;;5099864;28;20453;-78
2022/07/12 07:37:03;;;;;;;2.83;1.33;;;20.50;97.00;;;;;;5097832;28;20685;-77
2022/07/12 07:39:28;;;;;;;2.27;1.17;;;20.80;95.90;;;;;;5108894;27;20176;-77
2022/07/12 07:41:54;;;;;;;2.23;1.13;;;21.10;95.40;;;;;;5105617;28;20191;-77
2022/07/12 07:44:20;;;;;;;2.00;1.03;;;22.00;94.50;;;;;;5111437;28;20639;-77
2022/07/12 07:46:45;;;;;;;2.20;0.90;;;23.10;91.20;;;;;;5111663;28;20186;-78
2022/07/12 07:49:11;;;;;;;1.97;0.73;;;23.30;91.50;;;;;;5111340;28;20183;-77
2022/07/12 07:51:37;;;;;;;2.45;0.90;;;24.30;90.10;;;;;;5102100;28;20183;-77
2022/07/12 07:54:02;;;;;;;2.28;1.10;;;25.50;84.10;;;;;;5104601;28;20923;-77
2022/07/12 07:56:28;;;;;;;1.98;0.73;;;26.10;80.50;;;;;;5111370;28;20656;-77
2022/07/12 07:58:54;;;;;;;1.75;0.82;;;27.20;76.80;;;;;;5106281;28;20612;-77
2022/07/12 08:01:20;;;;;;;2.08;0.73;;;27.50;74.60;;;;;;5107520;28;20175;-77
2022/07/12 08:03:45;;;;;;;1.80;0.80;;;27.20;73.80;;;;;;5111547;28;20187;-77
2022/07/12 08:06:11;;;;;;;1.83;0.65;;;27.30;73.70;;;;;;5111411;28;20567;-77
2022/07/12 08:08:37;;;;;;;1.73;0.70;;;27.90;71.30;;;;;;5106636;28;20218;-78
2022/07/12 08:11:03;;;;;;;2.20;0.93;;;28.70;67.60;;;;;;5105243;28;20211;-77
2022/07/12 08:13:28;;;;;;;2.28;0.95;;;28.90;67.30;;;;;;5109250;28;20290;-78
2022/07/12 08:15:54;;;;;;;2.45;0.95;;;28.40;68.80;;;;;;5102851;28;20195;-77
2022/07/12 08:18:20;;;;;;;2.33;1.00;;;28.30;69.10;;;;;;5106878;28;20228;-77
2022/07/12 08:20:45;;;;;;;1.50;0.60;;;28.20;68.40;;;;;;5091430;28;20187;-78
2022/07/12 08:23:12;;;;;;;2.13;0.93;;;27.30;70.70;;;;;;5104889;28;20171;-77
2022/07/12 08:25:37;;;;;;;6.30;1.20;;;27.20;73.80;;;;;;5108908;28;20183;-77
2022/07/12 08:28:03;;;;;;;3.05;0.80;;;27.00;73.30;;;;;;5103316;28;20529;-77
2022/07/12 08:30:29;;;;;;;1.70;0.80;;;26.30;73.80;;;;;;5111159;28;20287;-76
2022/07/12 08:32:55;;;;;;;3.05;1.08;;;26.00;74.70;;;;;;5110618;28;20175;-77
2022/07/12 08:35:21;;;;;;;2.70;1.15;;;24.80;77.60;;;;;;5111035;28;20171;-76
2022/07/12 08:37:47;;;;;;;2.10;0.98;;;25.00;80.30;;;;;;5110650;28;20214;-77
2022/07/12 08:40:12;;;;;;;2.45;0.90;;;25.60;76.20;;;;;;5108626;28;20182;-77
2022/07/12 08:42:42;;;;;;;3.35;1.25;;;26.20;76.00;;;;;;5107260;28;20262;-77
2022/07/12 08:45:09;;;;;;;3.55;1.00;;;26.00;76.80;;;;;;5105012;28;20175;-77
2022/07/12 08:47:35;;;;;;;1.80;0.80;;;26.30;73.70;;;;;;5111513;27;20188;-77
2022/07/12 08:50:10;;;;;;;2.08;0.90;;;26.10;75.90;;;;;;5112869;28;20377;-76
2022/07/12 08:52:40;;;;;;;1.77;0.90;;;26.80;71.90;;;;;;5113140;28;20636;-76
2022/07/12 08:55:18;;;;;;;2.33;0.93;;;26.60;72.10;;;;;;5112884;28;20215;-76
2022/07/12 08:57:44;;;;;;;1.70;0.80;;;25.70;74.00;;;;;;5110631;28;20202;-79
2022/07/12 09:00:11;;;;;;;2.00;0.83;;;25.40;75.10;;;;;;5109559;28;20646;-79
2022/07/12 09:02:47;;;;;;;2.30;0.80;;;24.60;76.60;;;;;;5112591;28;20300;-79
2022/07/12 09:05:13;;;;;;;2.10;1.03;;;24.10;76.50;;;;;;5097506;28;20171;-76
2022/07/12 09:07:39;;;;;;;2.17;0.83;;;23.60;77.70;;;;;;5109924;28;20420;-76
2022/07/12 09:10:07;;;;;;;6.27;1.37;;;23.50;78.60;;;;;;5114460;28;20419;-76
2022/07/12 09:12:34;;;;;;;1.50;0.60;;;23.50;78.60;;;;;;5110957;28;20179;-76
2022/07/12 09:15:20;;;;;;;3.30;0.80;;;23.70;79.50;;;;;;5101771;27;20537;-76
2022/07/12 09:17:59;;;;;;;2.70;1.30;;;24.20;77.50;;;;;;5111065;28;20503;-78
2022/07/12 09:20:30;;;;;;;3.27;1.33;;;24.10;77.30;;;;;;5114941;28;20722;-77
2022/07/12 09:23:08;;;;;;;1.70;0.80;;;24.00;78.00;;;;;;5110690;28;20453;-78
2022/07/12 09:25:36;;;;;;;1.57;0.70;;;24.00;78.00;;;;;;5108737;28;20454;-78
2022/07/12 09:28:08;;;;;;;1.80;0.50;;;23.90;77.00;;;;;;5112740;28;20417;-78
2022/07/12 09:30:39;;;;;;;2.10;0.90;;;23.60;77.30;;;;;;5112067;28;20905;-77
2022/07/12 09:36:15;;;;;;;1.70;0.70;;;22.90;81.20;;;;;;5110059;28;20408;-77
2022/07/12 09:38:49;;;;;;;3.27;0.80;;;22.70;80.60;;;;;;5112727;28;20833;-77
2022/07/12 09:41:20;;;;;;;2.20;0.90;;;23.00;80.00;;;;;;5113976;28;20902;-77
2022/07/12 09:43:47;;;;;;;2.67;1.00;;;23.20;80.80;;;;;;5110654;28;20447;-77
2022/07/12 09:46:17;;;;;;;2.00;0.90;;;23.80;78.00;;;;;;5108262;28;20416;-76
2022/07/12 09:48:47;;;;;;;1.67;0.60;;;24.30;76.20;;;;;;5114751;28;20524;-76
2022/07/12 09:51:17;;;;;;;1.70;0.80;;;24.30;77.40;;;;;;5114050;28;20443;-76
2022/07/12 09:53:48;;;;;;;2.47;1.10;;;24.10;79.50;;;;;;5114623;28;20203;-76
2022/07/12 09:56:20;;;;;;;1.80;0.87;;;23.70;77.70;;;;;;5113653;28;20409;-75
2022/07/12 09:58:53;;;;;;;3.00;1.40;;;23.50;80.60;;;;;;5114681;28;20413;-76
2022/07/12 10:01:20;;;;;;;2.00;0.90;;;23.90;78.00;;;;;;5106459;28;20424;-75
2022/07/12 10:03:48;;;;;;;3.63;1.00;;;24.20;76.10;;;;;;5111325;28;20431;-75
2022/07/12 10:06:20;;;;;;;1.80;0.80;;;23.90;77.10;;;;;;5104058;28;20409;-76
2022/07/12 10:08:47;;;;;;;2.70;1.07;;;24.30;77.10;;;;;;5108899;28;20424;-76
2022/07/12 10:11:13;;;;;;;1.83;1.00;;;24.60;75.20;;;;;;5104152;28;20190;-76
2022/07/12 10:13:39;;;;;;;2.27;1.03;;;24.80;76.10;;;;;;5110176;28;20675;-76
2022/07/12 10:16:08;;;;;;;2.10;1.05;;;25.50;73.00;;;;;;5103627;28;20190;-76
2022/07/12 10:18:34;;;;;;;4.07;1.17;;;25.70;73.30;;;;;;5102744;28;20184;-76
2022/07/12 10:20:59;;;;;;;2.10;0.70;;;25.90;73.30;;;;;;5109352;28;20198;-76
2022/07/12 10:23:34;;;;;;;4.32;0.90;;;26.10;71.30;;;;;;5106816;28;20191;-76
2022/07/12 10:26:01;;;;;;;1.83;0.80;;;25.80;71.60;;;;;;5108477;28;20182;-75
2022/07/12 10:28:54;;;;;;;1.70;0.83;;;25.20;72.70;;;;;;5107950;27;20657;-75
2022/07/12 10:31:27;;;;;;;4.77;1.30;;;24.80;73.80;;;;;;5107444;28;20179;-75
2022/07/12 10:34:18;;;;;;;1.87;0.90;;;25.00;71.70;;;;;;5113981;28;20199;-75
2022/07/12 10:36:56;;;;;;;2.03;0.83;;;24.80;73.90;;;;;;5107086;28;20653;-75
2022/07/12 10:39:22;;;;;;;1.73;0.80;;;24.80;74.10;;;;;;5110412;28;20425;-75
2022/07/12 10:42:18;;;;;;;2.63;1.00;;;24.40;75.10;;;;;;5110229;28;20551;-75
2022/07/12 10:44:49;;;;;;;2.37;1.07;;;23.90;75.70;;;;;;5103742;28;20452;-75
2022/07/12 10:47:17;;;;;;;2.63;1.00;;;24.00;76.10;;;;;;5111310;27;20441;-75
2022/07/12 10:49:47;;;;;;;2.67;1.10;;;24.10;76.50;;;;;;5112728;28;20898;-75
2022/07/12 10:52:14;;;;;;;1.87;0.70;;;24.20;74.10;;;;;;5103850;28;20436;-76
2022/07/12 10:55:06;;;;;;;2.33;1.20;;;24.10;77.00;;;;;;5110279;28;20506;-75
2022/07/12 10:57:43;;;;;;;2.90;1.27;;;24.30;74.50;;;;;;5105308;28;20563;-75
2022/07/12 11:00:11;;;;;;;1.60;0.60;;;24.60;74.10;;;;;;5109316;28;20595;-76
2022/07/12 11:02:37;;;;;;;1.60;0.70;;;24.70;74.20;;;;;;5109694;28;20418;-75
2022/07/12 11:05:03;;;;;;;2.43;1.03;;;24.70;73.90;;;;;;5103935;28;20429;-76
2022/07/12 11:07:30;;;;;;;2.90;0.70;;;24.80;72.60;;;;;;5111856;28;20441;-75
2022/07/12 11:09:56;;;;;;;2.97;0.73;;;24.60;73.00;;;;;;5099626;28;20481;-75
2022/07/12 11:12:29;;;;;;;1.70;0.73;;;24.60;74.80;;;;;;5107886;28;20925;-75
2022/07/12 11:14:54;;;;;;;1.83;0.83;;;24.80;72.80;;;;;;5108363;28;20203;-75
2022/07/12 11:17:25;;;;;;;1.73;0.80;;;24.70;73.70;;;;;;5112277;28;21153;-75
2022/07/12 11:20:13;;;;;;;1.67;0.63;;;24.70;74.50;;;;;;5112208;28;20565;-75
2022/07/12 11:22:40;;;;;;;1.70;0.80;;;24.90;74.40;;;;;;5111612;28;20413;-75
2022/07/12 11:25:08;;;;;;;1.67;0.67;;;25.00;72.80;;;;;;5107326;28;20922;-75
2022/07/12 11:27:35;;;;;;;1.87;0.90;;;25.00;75.50;;;;;;5102476;28;20450;-75
2022/07/12 11:30:02;;;;;;;2.00;1.00;;;24.80;74.40;;;;;;5108819;28;20421;-75
2022/07/12 11:32:39;;;;;;;2.17;1.00;;;25.00;72.70;;;;;;5112520;28;20466;-75
2022/07/12 11:35:17;;;;;;;2.30;0.93;;;25.00;74.20;;;;;;5110127;28;20502;-75
2022/07/12 11:37:55;;;;;;;1.50;0.60;;;25.20;70.30;;;;;;5107192;28;20428;-76
2022/07/12 11:40:26;;;;;;;4.13;0.60;;;25.30;70.80;;;;;;5106199;28;20424;-76
2022/07/12 11:42:58;;;;;;;1.60;0.60;;;25.40;70.60;;;;;;5102309;28;20443;-76
2022/07/12 11:45:27;;;;;;;1.70;0.73;;;25.30;69.50;;;;;;5108447;28;20426;-76
2022/07/12 11:47:53;;;;;;;7.83;0.90;;;25.30;68.90;;;;;;5112073;28;20445;-76
2022/07/12 11:50:20;;;;;;;2.77;0.90;;;25.30;68.70;;;;;;5107762;28;20437;-75
2022/07/12 11:52:46;;;;;;;1.63;0.70;;;25.00;71.20;;;;;;5110727;28;20431;-75
2022/07/12 11:55:11;;;;;;;1.83;0.80;;;25.00;68.60;;;;;;5111538;28;20999;-76
2022/07/12 11:57:37;;;;;;;1.40;0.50;;;25.20;68.90;;;;;;5110330;28;20433;-76
2022/07/12 12:00:20;;;;;;;1.90;0.80;;;25.20;69.50;;;;;;5104418;28;20171;-76
2022/07/12 12:02:51;;;;;;;1.60;0.70;;;25.40;69.40;;;;;;5110517;28;20167;-75
2022/07/12 12:05:16;;;;;;;1.60;0.70;;;25.80;68.70;;;;;;5108628;28;20504;-76
2022/07/12 12:07:42;;;;;;;1.60;0.70;;;25.80;69.60;;;;;;5111275;28;20507;-76
2022/07/12 12:10:15;;;;;;;1.40;0.50;;;25.80;69.30;;;;;;5108593;28;20570;-76
2022/07/12 12:12:45;;;;;;;1.93;0.70;;;25.60;69.10;;;;;;5105031;28;20186;-75
2022/07/12 12:15:22;;;;;;;2.37;0.60;;;25.70;68.20;;;;;;5111013;28;20457;-76
2022/07/12 12:17:50;;;;;;;3.80;0.90;;;25.50;70.20;;;;;;5111621;28;20415;-76
2022/07/12 12:20:19;;;;;;;1.40;0.50;;;25.50;69.10;;;;;;5110072;28;20413;-76
2022/07/12 12:22:46;;;;;;;1.60;0.70;;;25.80;68.50;;;;;;5103156;28;21010;-75
2022/07/12 12:25:13;;;;;;;9.77;0.80;;;26.00;67.30;;;;;;5110897;28;20883;-76
2022/07/12 12:27:43;;;;;;;1.50;0.60;;;26.10;67.20;;;;;;5104178;28;20421;-76
2022/07/12 12:30:09;;;;;;;1.50;0.70;;;26.00;68.20;;;;;;5107737;28;20421;-76
2022/07/12 12:32:46;;;;;;;1.60;0.60;;;26.10;66.90;;;;;;5104254;28;20768;-77
2022/07/12 12:35:14;;;;;;;1.93;0.70;;;26.20;68.10;;;;;;5111908;28;20589;-76
2022/07/12 12:37:40;;;;;;;2.17;0.87;;;26.30;68.10;;;;;;5104127;28;20964;-76
2022/07/12 12:40:06;;;;;;;1.57;0.50;;;26.50;66.80;;;;;;5103195;28;20417;-76
2022/07/12 12:42:32;;;;;;;2.33;0.70;;;26.30;68.70;;;;;;5108276;28;20970;-76
2022/07/12 12:44:58;;;;;;;1.57;0.60;;;26.20;68.40;;;;;;5108448;28;20515;-77
2022/07/12 12:47:34;;;;;;;1.60;0.60;;;26.50;69.00;;;;;;5105553;28;20248;-77
2022/07/12 12:50:00;;;;;;;1.80;0.70;;;26.70;68.10;;;;;;5110677;28;20637;-76
2022/07/12 12:52:30;;;;;;;1.50;0.60;;;26.80;68.40;;;;;;5111853;28;20237;-77
2022/07/12 12:54:57;;;;;;;1.50;0.60;;;26.70;66.70;;;;;;5110326;28;20669;-76